Historique des mesures à Cassis (13260), France
Quotidien Résumé Juillet 3, 2017 Unités:  Métrique    US   Métrique/US
« Précédent (Jour)
Suivant (Jour) »
Quotidien Hebdomadaire Mensuel Annuel Période au choix
  Maximum: Minimum: Moyenne:
Température: TemperatureC °C 21.1 °C 24.5 °C
Point de rosée: DewpointC °C 11.1 °C 12.6 °C
Humidité: Humidity % 36 % 45 %
Vitesse du vent: 0 km/h 0 km/h 5.5 km/h
Rafales: 0 km/h - -
Vent:- - ESE
Pression: PressurehPa hPa 1013.1 hPa -
Précipitations: 0.0 mm    
Historical Graphs
 
 
Mesures pour : Juillet 3, 2017
Heure Temperature Point de rosée Pression Vent Vitesse du vent Rafales Humidité Pluie (par heure) Conditions
TemperatureC °C DewpointC °C PressurehPa hPa Calm     Humidity % HourlyPrecipMM mm SoftwareType W/m2
00:11 22.7 °C 11.7 °C 1013.1 hPa NNE 15 km/h 29 km/h 50 % 0.0 mm open2300-1.11 W/m2
01:10 22.4 °C 11.7 °C 1013.4 hPa NW 9.3 km/h 20.3 km/h 51 % 0.0 mm open2300-1.11 W/m2
02:11 21.9 °C 11.6 °C 1013.8 hPa North 10.9 km/h 28.5 km/h 52 % 0.0 mm open2300-1.11 W/m2
03:10 21.8 °C 11.5 °C 1013.4 hPa NNE 2.3 km/h 7.6 km/h 52 % 0.0 mm open2300-1.11 W/m2
04:10 21.6 °C 11.3 °C 1013.4 hPa NE 4.2 km/h 8.9 km/h 52 % 0.0 mm open2300-1.11 W/m2
05:11 21.1 °C 11.1 °C 1013.1 hPa Calm   5.1 km/h 53 % 0.0 mm open2300-1.11 W/m2
06:10 21.1 °C 11.1 °C 1013.4 hPa North 2.9 km/h 2.9 km/h 53 % 0.0 mm open2300-1.11 W/m2
07:11 21.1 °C 11.4 °C 1013.8 hPa NE 2.3 km/h 12.2 km/h 54 % 0.0 mm open2300-1.11 W/m2
08:10 23.3 °C 12.3 °C 1014.1 hPa ENE 1.8 km/h 5.1 km/h 50 % 0.0 mm open2300-1.11 W/m2
09:11 23.6 °C 12.3 °C 1014.4 hPa NE 6.4 km/h 15 km/h 49 % 0.0 mm open2300-1.11 W/m2
10:11 25.1 °C 13.7 °C 1014.8 hPa South 3.4 km/h 9.8 km/h 49 % 0.0 mm open2300-1.11 W/m2
11:11 28.7 °C 14.2 °C 1015.1 hPa SSE 5.6 km/h 14 km/h 41 % 0.0 mm open2300-1.11 W/m2
12:10 30.6 °C 14.6 °C 1015.5 hPa SSW 4.2 km/h 15 km/h 38 % 0.0 mm open2300-1.11 W/m2
13:10 30.6 °C 14.2 °C 1015.5 hPa SW 13.2 km/h 13.2 km/h 37 % 0.0 mm open2300-1.11 W/m2
14:10 31.2 °C 14.7 °C 1015.1 hPa SSE 23 km/h 23 km/h 37 % 0.0 mm open2300-1.11 W/m2
15:10 30.7 °C 13.8 °C 1015.1 hPa South 2.9 km/h 7.6 km/h 36 % 0.0 mm open2300-1.11 W/m2
16:10 29.9 °C 13.6 °C 1015.1 hPa SE 6.4 km/h 6.4 km/h 37 % 0.0 mm open2300-1.11 W/m2
17:11 29.0 °C 13.2 °C 1014.8 hPa SSE 3.4 km/h 19.6 km/h 38 % 0.0 mm open2300-1.11 W/m2
18:11 28.6 °C 14.1 °C 1014.1 hPa South 9.8 km/h 9.8 km/h 41 % 0.0 mm open2300-1.11 W/m2
19:10 26.8 °C 14.8 °C 1014.1 hPa SE 2.9 km/h 5.6 km/h 48 % 0.0 mm open2300-1.11 W/m2
20:10 26.7 °C 15.1 °C 1013.8 hPa Calm   6.4 km/h 49 % 0.0 mm open2300-1.11 W/m2
21:10 25.1 °C 14.6 °C 1014.1 hPa Calm     52 % 0.0 mm open2300-1.11 W/m2
22:10 23.9 °C 14.9 °C 1014.4 hPa Calm     57 % 0.0 mm open2300-1.11 W/m2
Observations météo à CASSIS
WU-History script by Weather Underground - 1 mb